Tegucigalpa, Honduras
Current Conditions -  °F | °C
As of 4:00 PM on Friday 31 Oct 2014 (Local Time) from MHTG Reporting Station
Broken Clouds Broken Clouds  
Wind Chill: 25°   Ceiling: 22000
Heat Index: 26°   Visibility: 6mi
Dew Point: 19°   Wind: 12mph
Humidity: 69%   Direction: 360°N
Pressure: 29.94"   Gusts: NA
Location:  14.09°N, 87.22°W
Report Text: MHTG 312200Z 36010KT 9999 SCT030CB BKN220 25/19 Q1014 A2994 NOSIG
Loading
Personal Weather Stations






























Interactive Weather Map New forecast layout! Learn more

10-Day Weather Forecast

Advertisements
Track Severe Weather on mobile